Time;durP1;ratioP1;P1;durP2;ratioP2;P2;SDS_P1;SDS_P2;PMS_P1;PMS_P2;Temp;Humidity;BMP_temperature;BMP_pressure;BME280_temperature;BME280_humidity;BME280_pressure;Samples;Min_cycle;Max_cycle;Signal;HPM_P1;HPM_P2
2022/11/25 00:00:20;;;;;;;9.00;2.75;;;;;;;;;;1270541;23;20318;-77
2022/11/25 00:00:51;;;;;;;8.13;3.05;;;;;;;;;;1264479;23;20006;-79
2022/11/25 00:01:23;;;;;;;6.82;3.22;;;;;;;;;;1264827;23;20009;-78
2022/11/25 00:01:54;;;;;;;6.60;3.13;;;;;;;;;;1265135;23;20013;-78
2022/11/25 00:02:25;;;;;;;10.05;3.17;;;;;;;;;;1264865;23;20008;-78
2022/11/25 00:02:56;;;;;;;11.45;3.63;;;;;;;;;;1264251;23;19997;-78
2022/11/25 00:03:27;;;;;;;10.00;3.42;;;;;;;;;;1265141;23;20099;-78
2022/11/25 00:03:58;;;;;;;14.85;3.17;;;;;;;;;;1270518;23;20001;-78
2022/11/25 00:04:35;;;;;;;9.05;3.85;;;;;;;;;;1270834;23;20117;-79
2022/11/25 00:05:06;;;;;;;9.55;3.45;;;;;;;;;;1271059;23;20001;-78
2022/11/25 00:05:37;;;;;;;8.50;2.75;;;;;;;;;;1268951;23;20105;-78
2022/11/25 00:06:09;;;;;;;9.63;3.60;;;;;;;;;;1266346;23;20060;-78
2022/11/25 00:06:40;;;;;;;10.13;3.55;;;;;;;;;;1264190;23;20017;-78
2022/11/25 00:07:11;;;;;;;8.65;3.53;;;;;;;;;;1265434;23;20068;-77
2022/11/25 00:07:42;;;;;;;10.55;3.38;;;;;;;;;;1271015;23;20015;-78
2022/11/25 00:08:13;;;;;;;9.32;3.75;;;;;;;;;;1270982;23;20366;-78
2022/11/25 00:08:45;;;;;;;11.65;4.07;;;;;;;;;;1270582;23;20085;-77
2022/11/25 00:09:16;;;;;;;8.98;3.75;;;;;;;;;;1271441;23;20396;-78
2022/11/25 00:09:46;;;;;;;11.75;3.03;;;;;;;;;;1277241;23;20424;-78
2022/11/25 00:10:17;;;;;;;7.50;3.38;;;;;;;;;;1271049;23;19993;-78
2022/11/25 00:10:48;;;;;;;9.05;2.80;;;;;;;;;;1264634;23;20081;-77
2022/11/25 00:11:19;;;;;;;9.52;2.85;;;;;;;;;;1264383;23;19998;-77
2022/11/25 00:11:50;;;;;;;10.90;3.10;;;;;;;;;;1264924;23;19994;-76
2022/11/25 00:12:21;;;;;;;11.57;3.60;;;;;;;;;;1270753;23;20020;-78
2022/11/25 00:12:52;;;;;;;8.82;2.83;;;;;;;;;;1265039;23;19994;-77
2022/11/25 00:13:23;;;;;;;7.65;2.97;;;;;;;;;;1270761;23;20418;-78
2022/11/25 00:13:55;;;;;;;7.90;3.47;;;;;;;;;;1270574;23;20107;-77
2022/11/25 00:14:26;;;;;;;9.38;2.88;;;;;;;;;;1271637;23;20189;-77
2022/11/25 00:14:57;;;;;;;7.85;3.22;;;;;;;;;;1277297;23;19993;-79
2022/11/25 00:15:28;;;;;;;7.15;3.10;;;;;;;;;;1277714;23;20302;-78
2022/11/25 00:16:02;;;;;;;6.97;3.08;;;;;;;;;;1270649;23;19997;-78
2022/11/25 00:16:33;;;;;;;10.15;2.83;;;;;;;;;;1264744;23;20029;-79
2022/11/25 00:17:04;;;;;;;10.27;3.28;;;;;;;;;;1264560;23;20001;-78
2022/11/25 00:17:35;;;;;;;9.65;3.33;;;;;;;;;;1265760;23;20082;-78
2022/11/25 00:18:06;;;;;;;8.65;2.70;;;;;;;;;;1264819;23;20526;-78
2022/11/25 00:18:37;;;;;;;10.15;3.20;;;;;;;;;;1264841;23;20002;-78
2022/11/25 00:19:09;;;;;;;11.20;3.80;;;;;;;;;;1270897;23;20049;-77
2022/11/25 00:19:40;;;;;;;11.27;3.00;;;;;;;;;;1271451;23;20001;-78
2022/11/25 00:20:11;;;;;;;4.70;2.72;;;;;;;;;;1277148;23;20080;-79
2022/11/25 00:20:42;;;;;;;8.13;2.90;;;;;;;;;;1277488;23;20080;-78
2022/11/25 00:21:14;;;;;;;9.98;2.63;;;;;;;;;;1277238;23;19996;-79
2022/11/25 00:21:45;;;;;;;7.57;2.80;;;;;;;;;;1270391;23;20092;-77
2022/11/25 00:22:16;;;;;;;8.40;3.00;;;;;;;;;;1270843;23;19998;-78
2022/11/25 00:22:47;;;;;;;10.20;3.25;;;;;;;;;;1264266;23;20030;-77
2022/11/25 00:23:18;;;;;;;9.35;2.90;;;;;;;;;;1264834;23;20524;-78
2022/11/25 00:23:53;;;;;;;8.77;3.30;;;;;;;;;;1270462;23;20005;-77
2022/11/25 00:24:24;;;;;;;6.75;3.78;;;;;;;;;;1272023;23;20345;-77
2022/11/25 00:24:55;;;;;;;6.18;2.60;;;;;;;;;;1277082;23;20607;-78
2022/11/25 00:25:26;;;;;;;8.35;2.83;;;;;;;;;;1270893;23;20020;-79
2022/11/25 00:25:57;;;;;;;11.68;3.92;;;;;;;;;;1264756;23;20045;-78
2022/11/25 00:26:28;;;;;;;14.40;3.70;;;;;;;;;;1264530;23;20045;-78
2022/11/25 00:27:03;;;;;;;11.88;4.47;;;;;;;;;;1264032;23;20017;-78
2022/11/25 00:27:34;;;;;;;8.57;3.28;;;;;;;;;;1270215;23;20009;-76
2022/11/25 00:28:05;;;;;;;12.65;4.43;;;;;;;;;;1271862;23;20039;-78
2022/11/25 00:28:37;;;;;;;11.40;3.97;;;;;;;;;;1277286;23;20432;-78
2022/11/25 00:29:09;;;;;;;6.07;2.30;;;;;;;;;;1276671;23;20032;-77
2022/11/25 00:29:40;;;;;;;9.35;3.70;;;;;;;;;;1276790;23;19997;-78
2022/11/25 00:30:12;;;;;;;8.25;3.65;;;;;;;;;;1270244;23;20001;-77
2022/11/25 00:30:42;;;;;;;8.63;2.30;;;;;;;;;;1270362;23;20346;-78
2022/11/25 00:31:25;;;;;;;7.85;2.70;;;;;;;;;;1264343;23;20488;-78
2022/11/25 00:31:56;;;;;;;12.07;4.18;;;;;;;;;;1266899;23;20041;-78
2022/11/25 00:32:27;;;;;;;11.00;3.28;;;;;;;;;;1264114;23;20010;-78
2022/11/25 00:32:58;;;;;;;16.02;4.05;;;;;;;;;;1264210;23;20017;-77
2022/11/25 00:33:29;;;;;;;9.43;3.20;;;;;;;;;;1265074;23;20537;-79
2022/11/25 00:34:00;;;;;;;8.50;3.25;;;;;;;;;;1270661;23;20215;-77
2022/11/25 00:34:31;;;;;;;7.38;3.38;;;;;;;;;;1270496;23;20006;-78
2022/11/25 00:35:02;;;;;;;9.77;4.10;;;;;;;;;;1270718;23;20005;-78
2022/11/25 00:35:34;;;;;;;12.07;3.00;;;;;;;;;;1264858;23;20006;-79
2022/11/25 00:36:06;;;;;;;8.77;3.03;;;;;;;;;;1271001;23;20025;-78
2022/11/25 00:36:37;;;;;;;7.00;2.33;;;;;;;;;;1271053;23;20104;-77
2022/11/25 00:37:08;;;;;;;7.43;3.05;;;;;;;;;;1270682;23;19998;-77
2022/11/25 00:37:39;;;;;;;10.25;3.58;;;;;;;;;;1270641;23;20033;-78
2022/11/25 00:38:10;;;;;;;10.05;3.70;;;;;;;;;;1270699;23;20004;-78
2022/11/25 00:38:42;;;;;;;10.82;2.92;;;;;;;;;;1271656;23;20437;-78
2022/11/25 00:39:14;;;;;;;7.20;2.88;;;;;;;;;;1277407;23;20001;-77
2022/11/25 00:39:44;;;;;;;11.57;4.00;;;;;;;;;;1270315;23;20005;-78
2022/11/25 00:40:15;;;;;;;8.07;2.75;;;;;;;;;;1264642;23;20002;-77
2022/11/25 00:44:34;;;;;;;10.00;2.90;;;;;;;;;;1264795;23;20001;-79
2022/11/25 00:44:58;;;;;;;8.82;3.25;;;;;;;;;;1277092;23;20083;-78
2022/11/25 00:45:29;;;;;;;9.68;3.63;;;;;;;;;;1277579;23;20005;-76
2022/11/25 00:46:00;;;;;;;11.45;3.90;;;;;;;;;;1270430;23;20035;-77
2022/11/25 00:46:31;;;;;;;9.52;2.88;;;;;;;;;;1270842;23;20093;-77
2022/11/25 00:47:05;;;;;;;11.88;4.18;;;;;;;;;;1264499;23;20010;-76
2022/11/25 00:47:36;;;;;;;14.00;3.50;;;;;;;;;;1265662;23;19998;-77
2022/11/25 00:48:07;;;;;;;8.30;3.40;;;;;;;;;;1270468;23;20048;-77
2022/11/25 00:48:38;;;;;;;9.10;3.17;;;;;;;;;;1271527;23;20008;-78
2022/11/25 00:49:08;;;;;;;12.15;3.47;;;;;;;;;;1277457;23;20003;-77
2022/11/25 00:49:41;;;;;;;5.90;2.78;;;;;;;;;;1277359;23;20488;-78
2022/11/25 00:50:11;;;;;;;12.13;4.35;;;;;;;;;;1277273;23;20001;-77
2022/11/25 00:50:42;;;;;;;8.40;3.20;;;;;;;;;;1277274;23;20001;-78
2022/11/25 00:51:13;;;;;;;12.02;3.70;;;;;;;;;;1270496;23;20009;-78
2022/11/25 00:51:44;;;;;;;10.02;3.78;;;;;;;;;;1264926;23;20370;-78
2022/11/25 00:52:16;;;;;;;11.68;3.33;;;;;;;;;;1264798;23;20469;-77
2022/11/25 00:52:47;;;;;;;11.07;3.70;;;;;;;;;;1265081;23;20040;-78
2022/11/25 00:53:18;;;;;;;13.60;3.90;;;;;;;;;;1270611;23;20010;-78
2022/11/25 00:53:49;;;;;;;9.07;3.03;;;;;;;;;;1264668;23;20115;-78
2022/11/25 00:54:20;;;;;;;8.23;3.13;;;;;;;;;;1265187;23;20347;-78
2022/11/25 00:54:51;;;;;;;12.40;3.97;;;;;;;;;;1270998;23;20005;-78
2022/11/25 00:55:22;;;;;;;10.60;4.13;;;;;;;;;;1270446;23;20453;-77
2022/11/25 00:56:11;;;;;;;7.35;2.60;;;;;;;;;;1270673;23;19998;-77
2022/11/25 00:56:42;;;;;;;11.05;2.97;;;;;;;;;;1271032;23;20005;-76
2022/11/25 00:57:14;;;;;;;15.40;3.30;;;;;;;;;;1274862;23;20006;-78
2022/11/25 00:57:45;;;;;;;8.73;3.05;;;;;;;;;;1270565;23;20005;-77
2022/11/25 00:58:16;;;;;;;5.60;2.85;;;;;;;;;;1264404;23;20006;-78
2022/11/25 00:58:47;;;;;;;8.40;3.15;;;;;;;;;;1264629;23;20084;-77
2022/11/25 00:59:18;;;;;;;9.55;2.75;;;;;;;;;;1265411;23;20494;-78
2022/11/25 00:59:49;;;;;;;11.52;3.30;;;;;;;;;;1270979;23;19998;-77
2022/11/25 01:00:20;;;;;;;7.50;2.95;;;;;;;;;;1265454;23;20010;-77
2022/11/25 01:00:51;;;;;;;9.07;3.33;;;;;;;;;;1270892;23;20005;-77
2022/11/25 01:01:22;;;;;;;7.40;3.35;;;;;;;;;;1271077;23;20076;-76
2022/11/25 01:01:54;;;;;;;8.40;2.60;;;;;;;;;;1271003;23;20013;-77
2022/11/25 01:02:25;;;;;;;10.18;4.18;;;;;;;;;;1271330;23;19997;-78
2022/11/25 01:02:56;;;;;;;7.82;2.92;;;;;;;;;;1264708;23;20006;-78
2022/11/25 01:03:27;;;;;;;6.97;2.33;;;;;;;;;;1270708;23;20016;-78
2022/11/25 01:03:58;;;;;;;8.27;2.60;;;;;;;;;;1271190;23;20349;-77
2022/11/25 01:04:29;;;;;;;4.32;1.85;;;;;;;;;;1271373;23;20136;-77
2022/11/25 01:05:00;;;;;;;8.25;2.47;;;;;;;;;;1270963;23;20055;-77
2022/11/25 01:05:31;;;;;;;12.90;3.13;;;;;;;;;;1271101;23;20032;-77
2022/11/25 01:06:03;;;;;;;8.05;3.15;;;;;;;;;;1265381;23;20006;-76
2022/11/25 01:06:35;;;;;;;7.32;2.42;;;;;;;;;;1270712;23;20607;-77
2022/11/25 01:07:06;;;;;;;9.00;3.33;;;;;;;;;;1270948;23;20291;-77
2022/11/25 01:07:37;;;;;;;6.55;2.75;;;;;;;;;;1272011;23;20001;-77
2022/11/25 01:08:08;;;;;;;4.38;2.13;;;;;;;;;;1277444;23;20001;-77
2022/11/25 01:08:39;;;;;;;7.00;2.65;;;;;;;;;;1277464;23;20017;-78
2022/11/25 01:09:10;;;;;;;10.02;3.33;;;;;;;;;;1271162;23;20005;-77
2022/11/25 01:09:41;;;;;;;10.50;3.80;;;;;;;;;;1265091;23;20021;-78
2022/11/25 01:10:12;;;;;;;8.80;3.38;;;;;;;;;;1264838;23;20093;-78
2022/11/25 01:10:43;;;;;;;6.78;2.38;;;;;;;;;;1265493;23;20010;-77
2022/11/25 01:11:16;;;;;;;12.40;3.15;;;;;;;;;;1271094;23;20006;-78
2022/11/25 01:11:49;;;;;;;14.85;3.38;;;;;;;;;;1270824;23;20071;-77
2022/11/25 01:12:20;;;;;;;9.00;2.78;;;;;;;;;;1266502;23;20001;-78
2022/11/25 01:12:51;;;;;;;5.75;2.03;;;;;;;;;;1270935;23;20005;-77
2022/11/25 01:13:22;;;;;;;11.77;4.00;;;;;;;;;;1271145;23;20601;-78
2022/11/25 01:13:55;;;;;;;11.25;3.60;;;;;;;;;;1270869;23;20010;-78
2022/11/25 01:14:26;;;;;;;7.95;3.22;;;;;;;;;;1271181;23;20096;-77
2022/11/25 01:14:57;;;;;;;8.20;2.70;;;;;;;;;;1271014;23;20005;-77
2022/11/25 01:15:28;;;;;;;8.27;2.97;;;;;;;;;;1270969;23;20084;-78
2022/11/25 01:16:02;;;;;;;7.82;3.42;;;;;;;;;;1271314;23;20105;-76
2022/11/25 01:16:33;;;;;;;7.70;3.13;;;;;;;;;;1272155;23;20001;-78
2022/11/25 01:17:04;;;;;;;6.72;3.00;;;;;;;;;;1271185;23;20020;-77
2022/11/25 01:17:35;;;;;;;6.72;2.92;;;;;;;;;;1265021;23;20010;-77
2022/11/25 01:18:06;;;;;;;14.35;3.88;;;;;;;;;;1265064;23;20085;-77
2022/11/25 01:18:37;;;;;;;10.02;4.00;;;;;;;;;;1265212;23;20002;-76
2022/11/25 01:19:10;;;;;;;6.30;2.67;;;;;;;;;;1264933;23;20095;-77
2022/11/25 01:19:41;;;;;;;8.77;3.05;;;;;;;;;;1264726;23;20008;-77
2022/11/25 01:20:12;;;;;;;9.93;3.03;;;;;;;;;;1259851;23;20054;-77
2022/11/25 01:20:43;;;;;;;8.73;3.58;;;;;;;;;;1264952;23;20006;-77
2022/11/25 01:21:20;;;;;;;11.93;3.38;;;;;;;;;;1259335;23;20002;-76
2022/11/25 01:21:51;;;;;;;15.32;3.92;;;;;;;;;;1260720;23;20006;-77
2022/11/25 01:22:22;;;;;;;10.73;3.65;;;;;;;;;;1260834;23;20006;-77
2022/11/25 01:22:53;;;;;;;6.03;2.47;;;;;;;;;;1264722;23;20452;-78
2022/11/25 01:23:24;;;;;;;6.72;2.60;;;;;;;;;;1264920;23;20010;-77
2022/11/25 01:23:55;;;;;;;9.63;3.10;;;;;;;;;;1265329;23;20010;-77
2022/11/25 01:24:26;;;;;;;7.65;3.00;;;;;;;;;;1271257;23;20005;-76
2022/11/25 01:24:57;;;;;;;9.40;2.90;;;;;;;;;;1271049;23;20001;-77
2022/11/25 01:25:28;;;;;;;7.32;2.70;;;;;;;;;;1271520;23;20001;-77
2022/11/25 01:26:06;;;;;;;9.55;3.85;;;;;;;;;;1270985;23;20077;-77
2022/11/25 01:26:37;;;;;;;8.82;2.88;;;;;;;;;;1273490;23;20001;-76
2022/11/25 01:27:08;;;;;;;10.65;3.25;;;;;;;;;;1270752;23;20085;-76
2022/11/25 01:27:41;;;;;;;10.60;3.40;;;;;;;;;;1265097;23;20684;-77
2022/11/25 01:28:12;;;;;;;10.38;3.00;;;;;;;;;;1265153;23;19998;-77
2022/11/25 01:28:43;;;;;;;9.55;3.40;;;;;;;;;;1265974;23;20512;-77
2022/11/25 01:29:16;;;;;;;9.93;3.08;;;;;;;;;;1271053;23;20021;-77
2022/11/25 01:29:47;;;;;;;9.73;3.00;;;;;;;;;;1265462;23;20006;-77
2022/11/25 01:30:18;;;;;;;8.88;3.58;;;;;;;;;;1266080;23;20090;-77
2022/11/25 01:30:58;;;;;;;9.43;3.28;;;;;;;;;;1271174;23;20112;-77
2022/11/25 01:31:31;;;;;;;5.13;2.22;;;;;;;;;;1271311;23;20073;-77
2022/11/25 01:32:02;;;;;;;7.93;2.67;;;;;;;;;;1271323;23;20001;-77
2022/11/25 01:32:32;;;;;;;5.85;2.75;;;;;;;;;;1271475;23;20277;-78
2022/11/25 01:33:03;;;;;;;11.93;4.97;;;;;;;;;;1266061;23;20057;-76
2022/11/25 01:33:35;;;;;;;9.38;2.55;;;;;;;;;;1271111;23;20120;-77
2022/11/25 01:34:08;;;;;;;10.43;3.25;;;;;;;;;;1271395;23;19997;-77
2022/11/25 01:34:39;;;;;;;8.23;2.47;;;;;;;;;;1270935;23;20436;-76
2022/11/25 01:35:10;;;;;;;6.57;3.00;;;;;;;;;;1271265;23;20418;-78
2022/11/25 01:35:41;;;;;;;15.95;3.47;;;;;;;;;;1265313;23;20006;-77
2022/11/25 01:36:13;;;;;;;8.68;3.40;;;;;;;;;;1271151;23;20804;-77
2022/11/25 01:36:45;;;;;;;7.43;2.55;;;;;;;;;;1271300;23;20010;-78
2022/11/25 01:37:15;;;;;;;8.73;2.75;;;;;;;;;;1270991;23;19997;-76
2022/11/25 01:37:46;;;;;;;9.18;3.70;;;;;;;;;;1270278;23;20092;-77
2022/11/25 01:38:17;;;;;;;10.25;3.70;;;;;;;;;;1271308;23;20097;-77
2022/11/25 01:38:50;;;;;;;10.65;3.55;;;;;;;;;;1271115;23;20453;-77
2022/11/25 01:39:22;;;;;;;8.88;3.72;;;;;;;;;;1271138;23;20558;-77
2022/11/25 01:39:53;;;;;;;7.05;2.17;;;;;;;;;;1271544;23;20665;-76
2022/11/25 01:40:24;;;;;;;10.23;2.63;;;;;;;;;;1271500;23;20474;-77
2022/11/25 01:40:55;;;;;;;8.00;3.03;;;;;;;;;;1272311;23;20061;-78
2022/11/25 01:41:27;;;;;;;8.23;3.10;;;;;;;;;;1277803;23;19996;-77
2022/11/25 01:41:58;;;;;;;7.85;2.30;;;;;;;;;;1271625;23;20014;-77
2022/11/25 01:42:30;;;;;;;6.43;2.63;;;;;;;;;;1264839;23;20089;-76
2022/11/25 01:43:01;;;;;;;7.80;2.92;;;;;;;;;;1265249;23;20069;-77
2022/11/25 01:43:32;;;;;;;8.75;2.65;;;;;;;;;;1266197;23;20002;-77
2022/11/25 01:44:06;;;;;;;8.93;3.35;;;;;;;;;;1271375;23;20009;-77
2022/11/25 01:44:38;;;;;;;8.57;2.72;;;;;;;;;;1265975;23;20017;-77
2022/11/25 01:45:21;;;;;;;7.57;2.88;;;;;;;;;;1271575;23;20053;-77
2022/11/25 01:45:53;;;;;;;11.73;3.72;;;;;;;;;;1271133;23;20055;-79
2022/11/25 01:46:28;;;;;;;9.00;2.85;;;;;;;;;;1271402;23;20005;-77
2022/11/25 01:47:14;;;;;;;8.48;3.28;;;;;;;;;;1271238;23;20111;-77
2022/11/25 01:47:45;;;;;;;9.23;2.75;;;;;;;;;;1270914;23;20017;-77
2022/11/25 01:48:18;;;;;;;9.68;3.47;;;;;;;;;;1271429;23;20092;-78
2022/11/25 01:48:52;;;;;;;13.88;4.32;;;;;;;;;;1271278;23;20077;-77
2022/11/25 01:49:41;;;;;;;11.50;3.00;;;;;;;;;;1271133;23;19994;-77
2022/11/25 01:50:22;;;;;;;10.38;3.40;;;;;;;;;;1276748;23;20005;-78
2022/11/25 01:50:53;;;;;;;9.30;3.47;;;;;;;;;;1277964;23;19993;-78
2022/11/25 01:51:29;;;;;;;12.18;3.83;;;;;;;;;;1271213;23;20001;-78
2022/11/25 01:52:09;;;;;;;14.52;3.45;;;;;;;;;;1264955;23;20002;-77
2022/11/25 01:52:43;;;;;;;10.88;2.92;;;;;;;;;;1265438;23;19987;-77
2022/11/25 01:53:15;;;;;;;9.43;3.00;;;;;;;;;;1269004;23;20010;-77
2022/11/25 01:53:47;;;;;;;8.95;3.08;;;;;;;;;;1274810;23;19990;-77
2022/11/25 01:54:19;;;;;;;11.02;3.33;;;;;;;;;;1277719;23;20040;-77
2022/11/25 01:55:00;;;;;;;5.90;2.30;;;;;;;;;;1270979;23;20066;-77
2022/11/25 01:55:33;;;;;;;8.70;2.92;;;;;;;;;;1271331;23;20004;-77
2022/11/25 01:56:04;;;;;;;8.05;3.08;;;;;;;;;;1271936;23;20575;-77
2022/11/25 01:56:39;;;;;;;8.27;2.65;;;;;;;;;;1274293;23;19990;-78
2022/11/25 01:57:14;;;;;;;8.38;3.22;;;;;;;;;;1277753;23;19993;-78
2022/11/25 01:57:48;;;;;;;11.50;3.25;;;;;;;;;;1277871;23;19997;-77
2022/11/25 01:58:22;;;;;;;7.93;2.83;;;;;;;;;;1277768;23;20051;-77
2022/11/25 01:58:53;;;;;;;9.60;3.33;;;;;;;;;;1278077;23;20004;-78
2022/11/25 01:59:24;;;;;;;11.57;3.63;;;;;;;;;;1277761;23;19997;-77
2022/11/25 01:59:57;;;;;;;10.65;3.22;;;;;;;;;;1271268;23;20005;-77
2022/11/25 02:00:28;;;;;;;8.52;3.88;;;;;;;;;;1271501;23;20012;-77
2022/11/25 02:00:59;;;;;;;7.78;2.45;;;;;;;;;;1271794;23;20390;-76
2022/11/25 02:01:30;;;;;;;11.27;4.35;;;;;;;;;;1265944;23;20009;-77
2022/11/25 02:02:01;;;;;;;11.73;3.17;;;;;;;;;;1271257;23;20650;-76
2022/11/25 02:02:32;;;;;;;7.07;2.92;;;;;;;;;;1271444;23;19993;-77
2022/11/25 02:03:04;;;;;;;10.65;3.60;;;;;;;;;;1272196;23;20025;-76
2022/11/25 02:03:37;;;;;;;7.13;2.40;;;;;;;;;;1271108;23;20001;-77
2022/11/25 02:04:10;;;;;;;9.18;3.22;;;;;;;;;;1265445;23;20361;-76
2022/11/25 02:04:41;;;;;;;6.35;2.60;;;;;;;;;;1264819;23;20097;-76
2022/11/25 02:05:14;;;;;;;7.65;3.28;;;;;;;;;;1266122;23;19998;-76
2022/11/25 02:05:55;;;;;;;7.55;2.58;;;;;;;;;;1271565;23;20316;-76
2022/11/25 02:06:28;;;;;;;9.63;3.15;;;;;;;;;;1274481;23;20079;-77
2022/11/25 02:07:03;;;;;;;10.02;3.88;;;;;;;;;;1271337;23;20026;-78
2022/11/25 02:07:36;;;;;;;16.45;4.07;;;;;;;;;;1265332;23;20081;-77
2022/11/25 02:08:07;;;;;;;9.15;3.00;;;;;;;;;;1265145;23;20045;-77
2022/11/25 02:08:39;;;;;;;8.55;2.63;;;;;;;;;;1266899;23;20014;-77
2022/11/25 02:09:10;;;;;;;6.65;2.88;;;;;;;;;;1266229;23;20006;-75
2022/11/25 02:09:42;;;;;;;9.77;3.70;;;;;;;;;;1271111;23;19998;-77
2022/11/25 02:10:32;;;;;;;10.20;3.47;;;;;;;;;;1271154;23;20001;-77
2022/11/25 02:11:03;;;;;;;8.63;2.45;;;;;;;;;;1271351;23;20002;-77
2022/11/25 02:11:35;;;;;;;9.52;2.92;;;;;;;;;;1271096;23;20033;-76
2022/11/25 02:12:06;;;;;;;7.45;2.75;;;;;;;;;;1271159;23;20017;-76
2022/11/25 02:12:40;;;;;;;7.55;2.55;;;;;;;;;;1271172;23;20002;-77
2022/11/25 02:13:11;;;;;;;7.18;2.90;;;;;;;;;;1272292;23;20005;-76
2022/11/25 02:13:42;;;;;;;12.75;3.45;;;;;;;;;;1278286;23;20004;-76
2022/11/25 02:14:14;;;;;;;7.57;2.53;;;;;;;;;;1278231;23;20001;-76
2022/11/25 02:14:46;;;;;;;7.38;2.47;;;;;;;;;;1271384;23;20092;-77
2022/11/25 02:15:17;;;;;;;8.75;2.45;;;;;;;;;;1265061;23;20088;-75
2022/11/25 02:15:48;;;;;;;6.70;2.92;;;;;;;;;;1265393;23;20006;-78
2022/11/25 02:16:19;;;;;;;9.60;3.42;;;;;;;;;;1265756;23;20013;-75
2022/11/25 02:16:50;;;;;;;7.25;3.67;;;;;;;;;;1265716;23;20105;-77
2022/11/25 02:17:21;;;;;;;10.85;3.40;;;;;;;;;;1265308;23;20002;-76
2022/11/25 02:17:52;;;;;;;9.48;3.20;;;;;;;;;;1265269;23;20014;-77
2022/11/25 02:18:23;;;;;;;9.85;2.67;;;;;;;;;;1271022;23;19997;-75
2022/11/25 02:18:54;;;;;;;6.60;2.55;;;;;;;;;;1272103;23;20350;-78
2022/11/25 02:19:29;;;;;;;7.72;3.17;;;;;;;;;;1271521;23;19998;-75
2022/11/25 02:20:03;;;;;;;8.10;2.58;;;;;;;;;;1271129;23;20009;-75
2022/11/25 02:20:34;;;;;;;5.53;2.30;;;;;;;;;;1270917;23;20500;-77
2022/11/25 02:21:06;;;;;;;8.68;2.58;;;;;;;;;;1271298;23;20465;-77
2022/11/25 02:21:40;;;;;;;9.23;2.75;;;;;;;;;;1271274;23;20048;-76
2022/11/25 02:22:15;;;;;;;10.98;4.10;;;;;;;;;;1265277;23;20017;-77
2022/11/25 02:22:49;;;;;;;8.50;3.38;;;;;;;;;;1266874;23;20033;-77
2022/11/25 02:23:28;;;;;;;8.00;2.78;;;;;;;;;;1270446;23;20021;-78
2022/11/25 02:23:58;;;;;;;;;;;;;;;;;;1271965;23;20009;-77
2022/11/25 02:24:33;;;;;;;6.57;2.60;;;;;;;;;;1271634;23;19960;-77
2022/11/25 02:25:30;;;;;;;9.68;2.70;;;;;;;;;;1274457;23;20621;-77
2022/11/25 02:26:02;;;;;;;6.68;2.40;;;;;;;;;;1272218;23;20001;-77
2022/11/25 02:26:33;;;;;;;8.98;2.95;;;;;;;;;;1278106;23;20107;-77
2022/11/25 02:27:05;;;;;;;4.50;2.60;;;;;;;;;;1271028;23;20013;-76
2022/11/25 02:27:36;;;;;;;8.30;2.80;;;;;;;;;;1271320;23;20005;-76
2022/11/25 02:28:11;;;;;;;9.20;2.95;;;;;;;;;;1265210;23;20056;-76
2022/11/25 02:28:43;;;;;;;11.77;3.72;;;;;;;;;;1266974;23;20053;-77
2022/11/25 02:29:14;;;;;;;10.30;2.72;;;;;;;;;;1271546;23;20467;-77
2022/11/25 02:29:45;;;;;;;8.52;2.80;;;;;;;;;;1271470;23;20576;-78
2022/11/25 02:30:16;;;;;;;8.52;3.13;;;;;;;;;;1271293;23;20005;-77
2022/11/25 02:30:48;;;;;;;11.95;3.10;;;;;;;;;;1271285;23;20001;-77
2022/11/25 02:31:20;;;;;;;5.95;2.15;;;;;;;;;;1271218;23;20084;-77
2022/11/25 02:31:51;;;;;;;8.40;2.53;;;;;;;;;;1271342;23;20111;-77
2022/11/25 02:32:22;;;;;;;9.43;3.60;;;;;;;;;;1271487;23;20001;-76
2022/11/25 02:32:53;;;;;;;8.85;3.17;;;;;;;;;;1270805;23;20037;-76
2022/11/25 02:33:24;;;;;;;7.38;3.10;;;;;;;;;;1271208;23;20001;-76
2022/11/25 02:33:55;;;;;;;8.57;3.30;;;;;;;;;;1271218;23;20014;-77
2022/11/25 02:34:26;;;;;;;11.23;4.35;;;;;;;;;;1271230;23;20033;-77
2022/11/25 02:34:57;;;;;;;8.40;2.88;;;;;;;;;;1271284;23;20582;-77
2022/11/25 02:35:33;;;;;;;13.43;4.13;;;;;;;;;;1270918;23;20461;-77
2022/11/25 02:36:12;;;;;;;10.00;3.10;;;;;;;;;;1266564;23;20017;-77
2022/11/25 02:36:44;;;;;;;10.80;3.88;;;;;;;;;;1271271;23;20016;-76
2022/11/25 02:37:17;;;;;;;7.25;3.35;;;;;;;;;;1271166;23;20036;-76
2022/11/25 02:37:48;;;;;;;10.13;3.58;;;;;;;;;;1271565;23;20410;-76
2022/11/25 02:38:21;;;;;;;9.40;3.55;;;;;;;;;;1270386;23;20449;-76
2022/11/25 02:38:57;;;;;;;8.38;3.92;;;;;;;;;;1271394;23;20028;-77
2022/11/25 02:39:28;;;;;;;10.00;3.78;;;;;;;;;;1271264;23;20005;-77
2022/11/25 02:39:59;;;;;;;10.35;3.80;;;;;;;;;;1271780;23;20005;-76
2022/11/25 02:40:30;;;;;;;12.75;4.15;;;;;;;;;;1271405;23;20105;-76
2022/11/25 02:41:04;;;;;;;8.95;3.13;;;;;;;;;;1271317;23;20006;-77
2022/11/25 02:41:40;;;;;;;8.95;3.80;;;;;;;;;;1272646;23;20060;-77
2022/11/25 02:42:12;;;;;;;8.13;3.33;;;;;;;;;;1278605;23;20020;-77
2022/11/25 02:42:44;;;;;;;10.68;3.30;;;;;;;;;;1271769;23;20057;-77
2022/11/25 02:43:15;;;;;;;9.40;3.35;;;;;;;;;;1271506;23;20008;-76
2022/11/25 02:43:46;;;;;;;10.77;4.03;;;;;;;;;;1265044;23;20101;-77
2022/11/25 02:44:17;;;;;;;8.35;3.50;;;;;;;;;;1265795;23;20351;-78
2022/11/25 02:44:48;;;;;;;5.72;3.08;;;;;;;;;;1265361;23;20653;-76
2022/11/25 02:45:22;;;;;;;8.85;3.08;;;;;;;;;;1266045;23;20094;-76
2022/11/25 02:45:58;;;;;;;8.70;3.08;;;;;;;;;;1271065;23;20468;-76
2022/11/25 02:46:30;;;;;;;13.80;3.63;;;;;;;;;;1271407;23;20433;-76
2022/11/25 02:47:01;;;;;;;8.35;3.45;;;;;;;;;;1270933;23;20069;-76
2022/11/25 02:47:32;;;;;;;10.60;3.90;;;;;;;;;;1270297;23;19993;-78
2022/11/25 02:48:03;;;;;;;8.50;2.85;;;;;;;;;;1271534;23;20002;-76
2022/11/25 02:48:35;;;;;;;7.32;2.83;;;;;;;;;;1271485;23;20596;-77
2022/11/25 02:49:06;;;;;;;10.65;3.13;;;;;;;;;;1271393;23;19998;-76
2022/11/25 02:49:37;;;;;;;8.77;3.47;;;;;;;;;;1271487;23;20497;-76
2022/11/25 02:50:08;;;;;;;9.63;3.35;;;;;;;;;;1271645;23;20432;-76
2022/11/25 02:50:39;;;;;;;5.82;2.92;;;;;;;;;;1272235;23;19994;-76
2022/11/25 02:51:15;;;;;;;9.25;3.63;;;;;;;;;;1278030;23;20032;-76
2022/11/25 02:51:46;;;;;;;7.82;2.72;;;;;;;;;;1278060;23;20325;-76
2022/11/25 02:52:17;;;;;;;11.25;3.10;;;;;;;;;;1278039;23;20317;-77
2022/11/25 02:52:48;;;;;;;8.40;3.20;;;;;;;;;;1278518;23;19991;-76
2022/11/25 02:53:19;;;;;;;8.55;3.60;;;;;;;;;;1271548;23;20216;-76
2022/11/25 02:53:50;;;;;;;7.53;2.45;;;;;;;;;;1271605;23;19993;-76
2022/11/25 02:54:21;;;;;;;5.88;2.50;;;;;;;;;;1271358;23;20004;-76
2022/11/25 02:54:52;;;;;;;6.80;2.90;;;;;;;;;;1265645;23;19990;-77
2022/11/25 02:55:23;;;;;;;7.18;2.85;;;;;;;;;;1265856;23;20050;-75
2022/11/25 02:55:54;;;;;;;9.10;3.58;;;;;;;;;;1259285;23;20462;-76
2022/11/25 02:56:26;;;;;;;11.30;3.03;;;;;;;;;;1259851;23;19995;-77
2022/11/25 02:56:57;;;;;;;9.60;4.07;;;;;;;;;;1265349;23;20002;-76
2022/11/25 02:57:28;;;;;;;9.27;2.45;;;;;;;;;;1259816;23;20081;-76
2022/11/25 02:57:59;;;;;;;11.80;3.20;;;;;;;;;;1265045;23;20073;-76
2022/11/25 02:58:30;;;;;;;7.28;2.60;;;;;;;;;;1259609;23;20652;-76
2022/11/25 02:59:01;;;;;;;7.32;2.67;;;;;;;;;;1266134;23;20001;-76
2022/11/25 02:59:32;;;;;;;6.28;2.90;;;;;;;;;;1271764;23;19990;-78
2022/11/25 03:00:04;;;;;;;5.93;2.67;;;;;;;;;;1272108;23;20017;-76
2022/11/25 03:00:35;;;;;;;9.75;2.97;;;;;;;;;;1278060;23;19995;-76
2022/11/25 03:01:06;;;;;;;7.15;2.75;;;;;;;;;;1278490;23;19992;-76
2022/11/25 03:01:37;;;;;;;8.30;2.70;;;;;;;;;;1271382;23;20316;-76
2022/11/25 03:02:09;;;;;;;9.45;3.60;;;;;;;;;;1271639;23;19993;-75
2022/11/25 03:02:39;;;;;;;10.60;3.50;;;;;;;;;;1265134;23;20383;-77
2022/11/25 03:03:11;;;;;;;7.32;3.38;;;;;;;;;;1265710;23;19998;-76
2022/11/25 03:03:42;;;;;;;12.75;4.15;;;;;;;;;;1265768;23;20066;-76
2022/11/25 03:04:13;;;;;;;10.63;4.10;;;;;;;;;;1265526;23;19990;-76
2022/11/25 03:04:44;;;;;;;12.25;4.10;;;;;;;;;;1265424;23;20391;-76
2022/11/25 03:05:15;;;;;;;10.75;4.07;;;;;;;;;;1271767;23;20496;-76
2022/11/25 03:05:46;;;;;;;9.15;3.65;;;;;;;;;;1271229;23;20076;-76
2022/11/25 03:06:16;;;;;;;8.38;4.22;;;;;;;;;;1272081;23;20317;-76
2022/11/25 03:06:47;;;;;;;7.47;3.88;;;;;;;;;;1265067;23;20030;-76
2022/11/25 03:07:18;;;;;;;7.78;3.45;;;;;;;;;;1265761;23;20077;-77
2022/11/25 03:07:49;;;;;;;4.75;3.00;;;;;;;;;;1271381;23;19989;-76
2022/11/25 03:08:20;;;;;;;8.98;3.60;;;;;;;;;;1271379;23;20013;-76
2022/11/25 03:08:51;;;;;;;8.38;2.80;;;;;;;;;;1266361;23;20013;-76
2022/11/25 03:09:22;;;;;;;9.50;3.55;;;;;;;;;;1271355;23;20332;-76
2022/11/25 03:09:53;;;;;;;10.38;3.85;;;;;;;;;;1271275;23;20089;-75
2022/11/25 03:10:24;;;;;;;10.75;3.47;;;;;;;;;;1271705;23;20033;-76
2022/11/25 03:10:55;;;;;;;8.35;2.60;;;;;;;;;;1270991;23;20008;-76
2022/11/25 03:12:19;;;;;;;8.18;2.85;;;;;;;;;;1271386;23;20048;-78
2022/11/25 03:12:50;;;;;;;7.45;3.05;;;;;;;;;;1271503;23;20002;-76
2022/11/25 03:13:21;;;;;;;8.77;3.15;;;;;;;;;;1271500;23;20028;-76
2022/11/25 03:13:51;;;;;;;6.78;3.10;;;;;;;;;;1272133;23;20008;-77
2022/11/25 03:14:23;;;;;;;9.32;2.97;;;;;;;;;;1271738;23;19994;-76
2022/11/25 03:14:53;;;;;;;6.30;2.55;;;;;;;;;;1271320;23;19990;-76
2022/11/25 03:15:25;;;;;;;9.45;3.20;;;;;;;;;;1271023;23;20001;-76
2022/11/25 03:15:56;;;;;;;4.65;2.13;;;;;;;;;;1271713;23;20001;-77